Time,TemperatureF,DewpointF,PressureIn,WindDirection,WindDirectionDegrees,WindSpeedMPH,WindSpeedGustMPH,Humidity,HourlyPrecipIn,Conditions,Clouds,dailyrainin,SoftwareType,DateUTC
2013-02-23 00:00:00,-26.0,-38.4,29.18,WNW,282,0.0,0.0,50,0.00,,,0.00,Weather View 32 v70,2013-02-23 09:00:00,
2013-02-23 00:05:00,-25.9,-38.3,29.18,WNW,282,0.0,0.0,50,0.00,,,0.00,Weather View 32 v70,2013-02-23 09:05:00,
2013-02-23 00:10:00,-25.9,-38.3,29.18,WNW,282,0.0,0.0,50,0.00,,,0.00,Weather View 32 v70,2013-02-23 09:10:00,
2013-02-23 00:15:00,-26.0,-38.8,29.17,WNW,282,0.0,0.0,49,0.00,,,0.00,Weather View 32 v70,2013-02-23 09:15:00,
2013-02-23 00:20:00,-26.1,-38.9,29.17,WNW,282,0.0,0.0,49,0.00,,,0.00,Weather View 32 v70,2013-02-23 09:20:00,
2013-02-23 00:25:00,-26.2,-39.0,29.17,WNW,282,0.0,0.0,49,0.00,,,0.00,Weather View 32 v70,2013-02-23 09:25:00,
2013-02-23 00:30:00,-26.3,-38.7,29.17,WNW,282,0.0,0.0,50,0.00,,,0.00,Weather View 32 v70,2013-02-23 09:30:00,
2013-02-23 00:35:00,-26.4,-39.2,29.17,WNW,282,0.0,0.0,49,0.00,,,0.00,Weather View 32 v70,2013-02-23 09:35:00,
2013-02-23 00:40:00,-26.4,-39.2,29.16,WNW,282,0.0,0.0,49,0.00,,,0.00,Weather View 32 v70,2013-02-23 09:40:00,
2013-02-23 00:45:00,-26.5,-39.3,29.16,WNW,282,0.0,0.0,49,0.00,,,0.00,Weather View 32 v70,2013-02-23 09:45:00,
2013-02-23 00:50:00,-26.4,-38.8,29.16,WNW,282,0.0,0.0,50,0.00,,,0.00,Weather View 32 v70,2013-02-23 09:50:00,
2013-02-23 00:55:00,-26.3,-38.7,29.16,WNW,282,0.0,0.0,50,0.00,,,0.00,Weather View 32 v70,2013-02-23 09:55:00,
2013-02-23 01:00:00,-26.1,-38.5,29.16,WNW,282,0.0,0.0,50,0.00,,,0.00,Weather View 32 v70,2013-02-23 10:00:00,
2013-02-23 01:05:00,-25.8,-37.9,29.16,WNW,282,0.0,0.0,51,0.00,,,0.00,Weather View 32 v70,2013-02-23 10:05:00,
2013-02-23 01:10:00,-25.4,-37.2,29.15,WNW,282,0.0,0.0,52,0.00,,,0.00,Weather View 32 v70,2013-02-23 10:10:00,
2013-02-23 01:15:00,-25.4,-37.5,29.15,WNW,282,0.0,0.0,51,0.00,,,0.00,Weather View 32 v70,2013-02-23 10:15:00,
2013-02-23 01:20:00,-25.4,-37.5,29.15,WNW,282,0.0,0.0,51,0.00,,,0.00,Weather View 32 v70,2013-02-23 10:20:00,
2013-02-23 01:25:00,-25.5,-38.0,29.15,WNW,282,0.0,0.0,50,0.00,,,0.00,Weather View 32 v70,2013-02-23 10:25:00,
2013-02-23 01:30:00,-25.6,-38.1,29.14,WNW,282,0.0,0.0,50,0.00,,,0.00,Weather View 32 v70,2013-02-23 10:30:00,
2013-02-23 01:35:00,-25.7,-38.2,29.14,WNW,282,0.0,0.0,50,0.00,,,0.00,Weather View 32 v70,2013-02-23 10:35:00,
2013-02-23 01:40:00,-25.6,-37.7,29.14,WNW,282,0.0,0.0,51,0.00,,,0.00,Weather View 32 v70,2013-02-23 10:40:00,
2013-02-23 01:45:00,-25.4,-37.5,29.15,WNW,282,0.0,0.0,51,0.00,,,0.00,Weather View 32 v70,2013-02-23 10:45:00,
2013-02-23 01:50:00,-25.2,-37.4,29.14,WNW,282,0.0,0.0,51,0.00,,,0.00,Weather View 32 v70,2013-02-23 10:50:00,
2013-02-23 01:55:00,-25.1,-37.3,29.14,WNW,282,0.0,0.0,51,0.00,,,0.00,Weather View 32 v70,2013-02-23 10:55:00,
2013-02-23 02:00:00,-25.1,-37.3,29.14,WNW,282,0.0,0.0,51,0.00,,,0.00,Weather View 32 v70,2013-02-23 11:00:00,
2013-02-23 02:05:00,-25.1,-37.3,29.14,WNW,282,0.0,0.0,51,0.00,,,0.00,Weather View 32 v70,2013-02-23 11:05:00,
2013-02-23 02:10:00,-24.9,-37.1,29.14,WNW,282,0.0,0.0,51,0.00,,,0.00,Weather View 32 v70,2013-02-23 11:10:00,
2013-02-23 02:15:00,-24.8,-37.0,29.13,WNW,282,0.0,0.0,51,0.00,,,0.00,Weather View 32 v70,2013-02-23 11:15:00,
2013-02-23 02:20:00,-24.3,-35.8,29.13,WNW,282,0.0,0.0,53,0.00,,,0.00,Weather View 32 v70,2013-02-23 11:20:00,
2013-02-23 02:25:00,-23.7,-35.3,29.12,WNW,282,0.0,0.0,53,0.00,,,0.00,Weather View 32 v70,2013-02-23 11:25:00,
2013-02-23 02:30:00,-23.6,-35.5,29.12,WNW,282,0.0,0.0,52,0.00,,,0.00,Weather View 32 v70,2013-02-23 11:30:00,
2013-02-23 02:35:00,-23.1,-34.7,29.12,WNW,282,0.0,0.0,53,0.00,,,0.00,Weather View 32 v70,2013-02-23 11:35:00,
2013-02-23 02:40:00,-22.7,-34.3,29.12,WNW,282,0.0,0.0,53,0.00,,,0.00,Weather View 32 v70,2013-02-23 11:40:00,
2013-02-23 02:45:00,-21.9,-32.9,29.12,WNW,282,0.0,0.0,55,0.00,,,0.00,Weather View 32 v70,2013-02-23 11:45:00,
2013-02-23 02:50:00,-20.9,-31.7,29.12,WNW,282,0.0,0.0,56,0.00,,,0.00,Weather View 32 v70,2013-02-23 11:50:00,
2013-02-23 02:55:00,-20.3,-31.1,29.12,WNW,282,0.0,0.0,56,0.00,,,0.00,Weather View 32 v70,2013-02-23 11:55:00,
2013-02-23 03:00:00,-20.0,-30.8,29.11,WNW,282,0.0,0.0,56,0.00,,,0.00,Weather View 32 v70,2013-02-23 12:00:00,
2013-02-23 03:05:00,-19.9,-30.7,29.11,WNW,282,0.0,0.0,56,0.00,,,0.00,Weather View 32 v70,2013-02-23 12:05:00,
2013-02-23 03:10:00,-19.5,-30.7,29.11,WNW,282,0.0,0.0,55,0.00,,,0.00,Weather View 32 v70,2013-02-23 12:10:00,
2013-02-23 03:15:00,-19.5,-30.7,29.11,WNW,282,0.0,0.0,55,0.00,,,0.00,Weather View 32 v70,2013-02-23 12:15:00,
2013-02-23 03:20:00,-19.1,-30.0,29.11,WNW,282,0.0,0.0,56,0.00,,,0.00,Weather View 32 v70,2013-02-23 12:20:00,
2013-02-23 03:25:00,-18.7,-29.6,29.11,WNW,282,0.0,0.0,56,0.00,,,0.00,Weather View 32 v70,2013-02-23 12:25:00,
2013-02-23 03:30:00,-18.0,-28.6,29.11,WNW,282,0.0,0.0,57,0.00,,,0.00,Weather View 32 v70,2013-02-23 12:30:00,
2013-02-23 03:35:00,-17.4,-28.0,29.11,WNW,282,0.0,0.0,57,0.00,,,0.00,Weather View 32 v70,2013-02-23 12:35:00,
2013-02-23 03:40:00,-16.2,-26.3,29.11,WNW,282,0.0,1.0,59,0.00,,,0.00,Weather View 32 v70,2013-02-23 12:40:00,
2013-02-23 03:45:00,-15.4,-25.5,29.11,WNW,282,0.0,1.0,59,0.00,,,0.00,Weather View 32 v70,2013-02-23 12:45:00,
2013-02-23 03:50:00,-14.9,-25.3,29.10,WNW,282,0.0,1.0,58,0.00,,,0.00,Weather View 32 v70,2013-02-23 12:50:00,
2013-02-23 03:55:00,-13.2,-23.1,29.10,NNE,31,5.0,5.0,60,0.00,,,0.00,Weather View 32 v70,2013-02-23 12:55:00,
2013-02-23 04:00:00,-11.3,-21.3,29.10,NNE,32,0.0,5.0,60,0.00,,,0.00,Weather View 32 v70,2013-02-23 13:00:00,
2013-02-23 04:05:00,-10.5,-20.9,29.10,NNE,24,0.0,5.0,59,0.00,,,0.00,Weather View 32 v70,2013-02-23 13:05:00,
2013-02-23 04:10:00,-10.5,-21.5,29.10,NNE,24,0.0,5.0,57,0.00,,,0.00,Weather View 32 v70,2013-02-23 13:10:00,
2013-02-23 04:15:00,-10.9,-22.2,29.09,NNE,24,0.0,5.0,56,0.00,,,0.00,Weather View 32 v70,2013-02-23 13:15:00,
2013-02-23 04:20:00,-10.9,-22.2,29.09,NNE,24,1.0,5.0,56,0.00,,,0.00,Weather View 32 v70,2013-02-23 13:20:00,
2013-02-23 04:25:00,-10.8,-22.1,29.09,NNE,25,1.0,5.0,56,0.00,,,0.00,Weather View 32 v70,2013-02-23 13:25:00,
2013-02-23 04:30:00,-10.5,-21.8,29.08,NNE,29,1.0,5.0,56,0.00,,,0.00,Weather View 32 v70,2013-02-23 13:30:00,
2013-02-23 04:35:00,-10.1,-21.5,29.08,NE,38,1.0,5.0,56,0.00,,,0.00,Weather View 32 v70,2013-02-23 13:35:00,
2013-02-23 04:40:00,-9.5,-20.9,29.07,NNE,28,1.0,5.0,56,0.00,,,0.00,Weather View 32 v70,2013-02-23 13:40:00,
2013-02-23 04:45:00,-9.2,-20.6,29.07,NNE,26,0.0,5.0,56,0.00,,,0.00,Weather View 32 v70,2013-02-23 13:45:00,
2013-02-23 04:50:00,-8.9,-20.7,29.07,NNE,27,5.0,5.0,55,0.00,,,0.00,Weather View 32 v70,2013-02-23 13:50:00,
2013-02-23 04:55:00,-8.3,-20.1,29.07,NNE,21,5.0,7.0,55,0.00,,,0.00,Weather View 32 v70,2013-02-23 13:55:00,
2013-02-23 05:00:00,-7.6,-19.8,29.06,NNE,29,7.0,9.0,54,0.00,,,0.00,Weather View 32 v70,2013-02-23 14:00:00,
2013-02-23 05:05:00,-7.0,-19.3,29.06,NE,38,3.0,10.0,54,0.00,,,0.00,Weather View 32 v70,2013-02-23 14:05:00,
2013-02-23 05:10:00,-6.6,-19.2,29.06,NE,44,1.0,13.0,53,0.00,,,0.00,Weather View 32 v70,2013-02-23 14:10:00,
2013-02-23 05:15:00,-6.3,-19.3,29.06,NNE,24,8.0,13.0,52,0.00,,,0.00,Weather View 32 v70,2013-02-23 14:15:00,
2013-02-23 05:20:00,-6.3,-19.7,29.06,NNE,33,4.0,13.0,51,0.00,,,0.00,Weather View 32 v70,2013-02-23 14:20:00,
2013-02-23 05:25:00,-6.4,-19.8,29.06,NE,40,1.0,13.0,51,0.00,,,0.00,Weather View 32 v70,2013-02-23 14:25:00,
2013-02-23 05:30:00,-6.3,-19.7,29.05,NNE,24,0.0,13.0,51,0.00,,,0.00,Weather View 32 v70,2013-02-23 14:30:00,
2013-02-23 05:35:00,-6.4,-19.8,29.06,NE,38,2.0,13.0,51,0.00,,,0.00,Weather View 32 v70,2013-02-23 14:35:00,
2013-02-23 05:40:00,-6.4,-19.8,29.06,NNE,23,0.0,13.0,51,0.00,,,0.00,Weather View 32 v70,2013-02-23 14:40:00,
2013-02-23 05:45:00,-6.6,-20.0,29.06,NNE,25,1.0,13.0,51,0.00,,,0.00,Weather View 32 v70,2013-02-23 14:45:00,
2013-02-23 05:50:00,-6.6,-20.0,29.06,NNE,22,0.0,13.0,51,0.00,,,0.00,Weather View 32 v70,2013-02-23 14:50:00,
2013-02-23 05:55:00,-6.9,-20.3,29.06,North,0,0.0,13.0,51,0.00,,,0.00,Weather View 32 v70,2013-02-23 14:55:00,
2013-02-23 06:00:00,-7.1,-20.4,29.06,North,359,1.0,13.0,51,0.00,,,0.00,Weather View 32 v70,2013-02-23 15:00:00,
2013-02-23 06:05:00,-7.4,-20.7,29.05,North,0,1.0,13.0,51,0.00,,,0.00,Weather View 32 v70,2013-02-23 15:05:00,
2013-02-23 06:10:00,-7.6,-20.9,29.05,NNE,21,2.0,12.0,51,0.00,,,0.00,Weather View 32 v70,2013-02-23 15:10:00,
2013-02-23 06:15:00,-7.6,-20.9,29.05,NNE,18,6.0,12.0,51,0.00,,,0.00,Weather View 32 v70,2013-02-23 15:15:00,
2013-02-23 06:20:00,-7.8,-21.1,29.04,NNE,12,5.0,12.0,51,0.00,,,0.00,Weather View 32 v70,2013-02-23 15:20:00,
2013-02-23 06:25:00,-7.8,-20.7,29.04,NNE,25,0.0,12.0,52,0.00,,,0.00,Weather View 32 v70,2013-02-23 15:25:00,
2013-02-23 06:30:00,-7.9,-20.8,29.04,NNE,24,0.0,12.0,52,0.00,,,0.00,Weather View 32 v70,2013-02-23 15:30:00,
2013-02-23 06:35:00,-7.9,-20.8,29.03,North,4,0.0,8.0,52,0.00,,,0.00,Weather View 32 v70,2013-02-23 15:35:00,
2013-02-23 06:40:00,-7.9,-20.8,29.02,NNE,21,1.0,8.0,52,0.00,,,0.00,Weather View 32 v70,2013-02-23 15:40:00,
2013-02-23 06:45:00,-7.9,-20.8,29.02,NNE,14,8.0,9.0,52,0.00,,,0.00,Weather View 32 v70,2013-02-23 15:45:00,
2013-02-23 06:50:00,-7.6,-20.2,29.02,NNE,27,5.0,12.0,53,0.00,,,0.00,Weather View 32 v70,2013-02-23 15:50:00,
2013-02-23 06:55:00,-7.4,-20.4,29.03,NNE,29,0.0,12.0,52,0.00,,,0.00,Weather View 32 v70,2013-02-23 15:55:00,
2013-02-23 07:00:00,-7.3,-20.3,29.04,NNE,23,1.0,12.0,52,0.00,,,0.00,Weather View 32 v70,2013-02-23 16:00:00,
2013-02-23 07:05:00,-6.8,-19.4,29.03,NNE,20,7.0,12.0,53,0.00,,,0.00,Weather View 32 v70,2013-02-23 16:05:00,
2013-02-23 07:10:00,-6.5,-19.5,29.03,NNE,18,7.0,12.0,52,0.00,,,0.00,Weather View 32 v70,2013-02-23 16:10:00,
2013-02-23 07:15:00,-6.4,-19.4,29.03,NNE,25,2.0,12.0,52,0.00,,,0.00,Weather View 32 v70,2013-02-23 16:15:00,
2013-02-23 07:20:00,-6.4,-19.4,29.03,NNE,19,0.0,12.0,52,0.00,,,0.00,Weather View 32 v70,2013-02-23 16:20:00,
2013-02-23 07:25:00,-6.4,-19.4,29.03,NNE,14,1.0,12.0,52,0.00,,,0.00,Weather View 32 v70,2013-02-23 16:25:00,
2013-02-23 07:30:00,-6.9,-19.9,29.03,North,1,1.0,12.0,52,0.00,,,0.00,Weather View 32 v70,2013-02-23 16:30:00,
2013-02-23 07:35:00,-7.0,-20.0,29.03,NNE,22,0.0,12.0,52,0.00,,,0.00,Weather View 32 v70,2013-02-23 16:35:00,
2013-02-23 07:40:00,-7.0,-20.0,29.03,NNE,19,0.0,12.0,52,0.00,,,0.00,Weather View 32 v70,2013-02-23 16:40:00,
2013-02-23 07:45:00,-7.0,-20.0,29.03,NNE,29,7.0,12.0,52,0.00,,,0.00,Weather View 32 v70,2013-02-23 16:45:00,
2013-02-23 07:50:00,-6.9,-19.9,29.03,NNE,17,0.0,12.0,52,0.00,,,0.00,Weather View 32 v70,2013-02-23 16:50:00,
2013-02-23 07:55:00,-6.8,-19.8,29.02,NNE,28,5.0,12.0,52,0.00,,,0.00,Weather View 32 v70,2013-02-23 16:55:00,
2013-02-23 08:00:00,-6.9,-19.9,29.03,NE,34,2.0,12.0,52,0.00,,,0.00,Weather View 32 v70,2013-02-23 17:00:00,
2013-02-23 08:05:00,-6.9,-19.9,29.03,NNE,22,2.0,10.0,52,0.00,,,0.00,Weather View 32 v70,2013-02-23 17:05:00,
2013-02-23 08:10:00,-7.0,-20.0,29.03,North,358,0.0,10.0,52,0.00,,,0.00,Weather View 32 v70,2013-02-23 17:10:00,
2013-02-23 08:15:00,-7.1,-20.1,29.02,NNE,31,4.0,9.0,52,0.00,,,0.00,Weather View 32 v70,2013-02-23 17:15:00,
2013-02-23 08:20:00,-7.2,-20.2,29.03,NNE,29,5.0,9.0,52,0.00,,,0.00,Weather View 32 v70,2013-02-23 17:20:00,
2013-02-23 08:25:00,-7.2,-20.2,29.02,NNE,29,0.0,9.0,52,0.00,,,0.00,Weather View 32 v70,2013-02-23 17:25:00,
2013-02-23 08:30:00,-7.1,-20.1,29.02,NNE,21,0.0,9.0,52,0.00,,,0.00,Weather View 32 v70,2013-02-23 17:30:00,
2013-02-23 08:35:00,-7.1,-19.7,29.02,NNE,15,2.0,9.0,53,0.00,,,0.00,Weather View 32 v70,2013-02-23 17:35:00,
2013-02-23 08:40:00,-6.9,-19.5,29.02,NNE,15,1.0,9.0,53,0.00,,,0.00,Weather View 32 v70,2013-02-23 17:40:00,
2013-02-23 08:45:00,-6.8,-19.4,29.02,NNE,22,0.0,9.0,53,0.00,,,0.00,Weather View 32 v70,2013-02-23 17:45:00,
2013-02-23 08:50:00,-6.6,-19.6,29.02,NNE,23,1.0,8.0,52,0.00,,,0.00,Weather View 32 v70,2013-02-23 17:50:00,
2013-02-23 08:55:00,-6.7,-19.7,29.02,NNE,23,0.0,8.0,52,0.00,,,0.00,Weather View 32 v70,2013-02-23 17:55:00,
2013-02-23 09:00:00,-6.5,-19.1,29.02,NNE,30,0.0,8.0,53,0.00,,,0.00,Weather View 32 v70,2013-02-23 18:00:00,
2013-02-23 09:05:00,-6.4,-19.0,29.02,NNE,21,2.0,8.0,53,0.00,,,0.00,Weather View 32 v70,2013-02-23 18:05:00,
2013-02-23 09:10:00,-6.2,-19.2,29.02,NNE,22,1.0,8.0,52,0.00,,,0.00,Weather View 32 v70,2013-02-23 18:10:00,
2013-02-23 09:15:00,-6.2,-19.2,29.02,NNE,13,4.0,8.0,52,0.00,,,0.00,Weather View 32 v70,2013-02-23 18:15:00,
2013-02-23 09:22:00,-6.2,-19.2,29.02,NNE,30,2.0,8.0,52,0.00,,,0.00,Weather View 32 v70,2013-02-23 18:22:00,
2013-02-23 09:27:00,-6.0,-19.0,29.02,NNE,30,3.0,8.0,52,0.00,,,0.00,Weather View 32 v70,2013-02-23 18:27:00,
2013-02-23 09:30:00,-6.0,-19.0,29.02,North,5,0.0,8.0,52,0.00,,,0.00,Weather View 32 v70,2013-02-23 18:30:00,
2013-02-23 09:32:00,-5.8,-18.9,29.02,NNE,20,3.0,8.0,52,0.00,,,0.00,Weather View 32 v70,2013-02-23 18:32:00,
2013-02-23 09:37:00,-5.6,-19.0,29.01,NNE,28,4.0,8.0,51,0.00,,,0.00,Weather View 32 v70,2013-02-23 18:37:00,
2013-02-23 09:42:00,-5.3,-18.8,29.01,NNE,26,0.0,8.0,51,0.00,,,0.00,Weather View 32 v70,2013-02-23 18:42:00,
2013-02-23 09:47:00,-5.1,-18.6,29.02,NNE,22,1.0,7.0,51,0.00,,,0.00,Weather View 32 v70,2013-02-23 18:47:00,
2013-02-23 09:52:00,-4.8,-18.3,29.01,NNE,15,4.0,7.0,51,0.00,,,0.00,Weather View 32 v70,2013-02-23 18:52:00,
2013-02-23 09:57:00,-4.5,-18.0,29.01,NNE,20,4.0,9.0,51,0.00,,,0.00,Weather View 32 v70,2013-02-23 18:57:00,
2013-02-23 10:02:00,-4.2,-18.1,29.01,North,6,3.0,9.0,50,0.00,,,0.00,Weather View 32 v70,2013-02-23 19:02:00,
2013-02-23 10:07:00,-3.8,-17.7,29.01,NNE,13,4.0,9.0,50,0.00,,,0.00,Weather View 32 v70,2013-02-23 19:07:00,
2013-02-23 10:12:00,-3.7,-17.7,29.01,NNE,15,4.0,9.0,50,0.00,,,0.00,Weather View 32 v70,2013-02-23 19:12:00,
2013-02-23 10:17:00,-3.6,-17.6,29.01,NNE,13,4.0,9.0,50,0.00,,,0.00,Weather View 32 v70,2013-02-23 19:17:00,
2013-02-23 10:22:00,-3.4,-17.8,29.01,NE,40,1.0,9.0,49,0.00,,,0.00,Weather View 32 v70,2013-02-23 19:22:00,
2013-02-23 10:27:00,-3.2,-17.6,29.01,NNE,27,3.0,9.0,49,0.00,,,0.00,Weather View 32 v70,2013-02-23 19:27:00,
2013-02-23 10:30:00,-3.2,-17.6,29.01,NNE,27,3.0,9.0,49,0.00,,,0.00,Weather View 32 v70,2013-02-23 19:30:00,
2013-02-23 10:34:00,-2.8,-16.8,29.01,NNE,25,5.0,9.0,50,0.00,,,0.00,Weather View 32 v70,2013-02-23 19:34:00,
2013-02-23 10:39:00,-2.2,-16.3,29.00,NNE,24,5.0,9.0,50,0.00,,,0.00,Weather View 32 v70,2013-02-23 19:39:00,
2013-02-23 10:44:00,-1.5,-15.6,29.00,NNE,30,3.0,9.0,50,0.00,,,0.00,Weather View 32 v70,2013-02-23 19:44:00,
2013-02-23 10:49:00,-1.0,-15.5,29.00,NE,55,4.0,9.0,49,0.00,,,0.00,Weather View 32 v70,2013-02-23 19:49:00,
2013-02-23 10:54:00,-0.5,-15.5,29.00,ENE,61,4.0,9.0,48,0.00,,,0.00,Weather View 32 v70,2013-02-23 19:54:00,
2013-02-23 10:59:00,-0.1,-15.1,29.00,ENE,70,1.0,9.0,48,0.00,,,0.00,Weather View 32 v70,2013-02-23 19:59:00,
2013-02-23 11:04:00,0.3,-14.7,29.00,NNE,18,8.0,9.0,48,0.00,,,0.00,Weather View 32 v70,2013-02-23 20:04:00,
2013-02-23 11:09:00,0.5,-14.6,29.01,NNE,30,3.0,9.0,48,0.00,,,0.00,Weather View 32 v70,2013-02-23 20:09:00,
2013-02-23 11:14:00,0.6,-14.9,29.00,ENE,61,5.0,9.0,47,0.00,,,0.00,Weather View 32 v70,2013-02-23 20:14:00,
2013-02-23 11:19:00,0.6,-14.9,29.00,NNE,33,7.0,9.0,47,0.00,,,0.00,Weather View 32 v70,2013-02-23 20:19:00,
2013-02-23 11:24:00,0.5,-15.4,29.00,NE,35,5.0,10.0,46,0.00,,,0.00,Weather View 32 v70,2013-02-23 20:24:00,
2013-02-23 11:29:00,0.6,-14.9,29.00,NNE,28,4.0,11.0,47,0.00,,,0.00,Weather View 32 v70,2013-02-23 20:29:00,
2013-02-23 11:30:00,0.6,-15.3,29.00,NNE,28,3.0,11.0,46,0.00,,,0.00,Weather View 32 v70,2013-02-23 20:30:00,
2013-02-23 11:34:00,0.9,-14.6,29.01,NNE,28,7.0,11.0,47,0.00,,,0.00,Weather View 32 v70,2013-02-23 20:34:00,
2013-02-23 11:39:00,1.2,-14.3,29.00,NNE,24,6.0,11.0,47,0.00,,,0.00,Weather View 32 v70,2013-02-23 20:39:00,
2013-02-23 11:44:00,1.5,-14.1,29.00,ENE,60,2.0,11.0,47,0.00,,,0.00,Weather View 32 v70,2013-02-23 20:44:00,
2013-02-23 11:49:00,1.7,-14.3,29.00,NNE,31,0.0,11.0,46,0.00,,,0.00,Weather View 32 v70,2013-02-23 20:49:00,
2013-02-23 11:54:00,1.7,-13.9,29.00,NNE,22,5.0,11.0,47,0.00,,,0.00,Weather View 32 v70,2013-02-23 20:54:00,
2013-02-23 11:59:00,1.8,-14.2,29.01,NNE,20,3.0,11.0,46,0.00,,,0.00,Weather View 32 v70,2013-02-23 20:59:00,
2013-02-23 12:04:00,2.0,-13.6,29.01,NNE,24,4.0,11.0,47,0.00,,,0.00,Weather View 32 v70,2013-02-23 21:04:00,
2013-02-23 12:09:00,2.0,-14.0,29.01,NNE,32,5.0,11.0,46,0.00,,,0.00,Weather View 32 v70,2013-02-23 21:09:00,
2013-02-23 12:14:00,2.0,-14.4,29.01,NNE,33,4.0,11.0,45,0.00,,,0.00,Weather View 32 v70,2013-02-23 21:14:00,
2013-02-23 12:19:00,2.0,-14.4,29.01,NNE,18,3.0,11.0,45,0.00,,,0.00,Weather View 32 v70,2013-02-23 21:19:00,
2013-02-23 12:24:00,2.3,-14.2,29.01,NE,41,4.0,11.0,45,0.00,,,0.00,Weather View 32 v70,2013-02-23 21:24:00,
2013-02-23 12:29:00,2.5,-14.0,29.01,ENE,57,2.0,9.0,45,0.00,,,0.00,Weather View 32 v70,2013-02-23 21:29:00,
2013-02-23 12:30:00,2.4,-14.1,29.01,NNE,19,3.0,9.0,45,0.00,,,0.00,Weather View 32 v70,2013-02-23 21:30:00,
2013-02-23 12:34:00,2.7,-13.8,29.00,NE,54,4.0,9.0,45,0.00,,,0.00,Weather View 32 v70,2013-02-23 21:34:00,
2013-02-23 12:39:00,3.2,-12.9,29.01,NNE,27,3.0,8.0,46,0.00,,,0.00,Weather View 32 v70,2013-02-23 21:39:00,
2013-02-23 12:44:00,3.3,-13.3,29.01,NNE,15,5.0,8.0,45,0.00,,,0.00,Weather View 32 v70,2013-02-23 21:44:00,
2013-02-23 12:49:00,3.2,-13.8,29.01,North,358,2.0,9.0,44,0.00,,,0.00,Weather View 32 v70,2013-02-23 21:49:00,
2013-02-23 12:54:00,3.3,-13.3,29.00,North,357,3.0,9.0,45,0.00,,,0.00,Weather View 32 v70,2013-02-23 21:54:00,
2013-02-23 12:59:00,3.5,-13.5,29.00,NNE,23,4.0,9.0,44,0.00,,,0.00,Weather View 32 v70,2013-02-23 21:59:00,
2013-02-23 13:04:00,3.9,-12.7,29.00,NNE,17,5.0,9.0,45,0.00,,,0.00,Weather View 32 v70,2013-02-23 22:04:00,
2013-02-23 13:09:00,4.0,-12.6,29.00,North,10,3.0,9.0,45,0.00,,,0.00,Weather View 32 v70,2013-02-23 22:09:00,
2013-02-23 13:14:00,4.0,-12.6,29.00,NNE,21,5.0,9.0,45,0.00,,,0.00,Weather View 32 v70,2013-02-23 22:14:00,
2013-02-23 13:19:00,4.2,-12.9,29.00,North,3,3.0,9.0,44,0.00,,,0.00,Weather View 32 v70,2013-02-23 22:19:00,
2013-02-23 13:24:00,4.4,-12.7,28.99,NNE,24,4.0,9.0,44,0.00,,,0.00,Weather View 32 v70,2013-02-23 22:24:00,
2013-02-23 13:29:00,4.6,-12.5,29.00,NNE,27,1.0,9.0,44,0.00,,,0.00,Weather View 32 v70,2013-02-23 22:29:00,
2013-02-23 13:30:00,4.5,-12.2,29.00,NNE,12,4.0,9.0,45,0.00,,,0.00,Weather View 32 v70,2013-02-23 22:30:00,
2013-02-23 13:34:00,4.6,-12.5,28.99,NNE,26,2.0,9.0,44,0.00,,,0.00,Weather View 32 v70,2013-02-23 22:34:00,
2013-02-23 13:39:00,4.8,-12.3,28.99,NNE,27,4.0,9.0,44,0.00,,,0.00,Weather View 32 v70,2013-02-23 22:39:00,
2013-02-23 13:44:00,4.9,-12.2,28.99,NE,34,4.0,9.0,44,0.00,,,0.00,Weather View 32 v70,2013-02-23 22:44:00,
2013-02-23 13:49:00,5.0,-12.1,28.99,NNE,26,4.0,9.0,44,0.00,,,0.00,Weather View 32 v70,2013-02-23 22:49:00,
2013-02-23 13:54:00,5.1,-12.1,28.98,NNE,23,2.0,9.0,44,0.00,,,0.00,Weather View 32 v70,2013-02-23 22:54:00,
2013-02-23 13:59:00,5.3,-11.9,28.98,NNE,25,2.0,9.0,44,0.00,,,0.00,Weather View 32 v70,2013-02-23 22:59:00,
2013-02-23 14:04:00,5.5,-11.2,28.98,NNE,25,2.0,9.0,45,0.00,,,0.00,Weather View 32 v70,2013-02-23 23:04:00,
2013-02-23 14:09:00,5.8,-11.0,28.98,NNE,27,1.0,9.0,45,0.00,,,0.00,Weather View 32 v70,2013-02-23 23:09:00,
2013-02-23 14:14:00,6.0,-11.2,28.98,NNE,29,1.0,9.0,44,0.00,,,0.00,Weather View 32 v70,2013-02-23 23:14:00,
2013-02-23 14:19:00,6.3,-10.9,28.98,NNE,20,5.0,9.0,44,0.00,,,0.00,Weather View 32 v70,2013-02-23 23:19:00,
2013-02-23 14:24:00,6.3,-10.9,28.98,NNE,27,2.0,9.0,44,0.00,,,0.00,Weather View 32 v70,2013-02-23 23:24:00,
2013-02-23 14:29:00,6.3,-11.4,28.98,NE,34,0.0,9.0,43,0.00,,,0.00,Weather View 32 v70,2013-02-23 23:29:00,
2013-02-23 14:30:00,6.3,-11.4,28.98,NE,34,3.0,9.0,43,0.00,,,0.00,Weather View 32 v70,2013-02-23 23:30:00,
2013-02-23 14:34:00,6.3,-10.9,28.97,NNE,22,3.0,8.0,44,0.00,,,0.00,Weather View 32 v70,2013-02-23 23:34:00,
2013-02-23 14:39:00,6.2,-11.0,28.97,NNE,23,4.0,8.0,44,0.00,,,0.00,Weather View 32 v70,2013-02-23 23:39:00,
2013-02-23 14:44:00,6.2,-11.0,28.97,NNE,14,1.0,8.0,44,0.00,,,0.00,Weather View 32 v70,2013-02-23 23:44:00,
2013-02-23 14:49:00,6.2,-11.5,28.97,NNE,19,6.0,8.0,43,0.00,,,0.00,Weather View 32 v70,2013-02-23 23:49:00,
2013-02-23 14:54:00,6.3,-10.9,28.97,North,9,3.0,8.0,44,0.00,,,0.00,Weather View 32 v70,2013-02-23 23:54:00,
2013-02-23 14:59:00,6.5,-10.8,28.97,NNE,17,1.0,8.0,44,0.00,,,0.00,Weather View 32 v70,2013-02-23 23:59:00,
2013-02-23 15:04:00,6.8,-10.0,28.97,NNE,19,3.0,8.0,45,0.00,,,0.00,Weather View 32 v70,2013-02-24 00:04:00,
2013-02-23 15:09:00,6.9,-10.4,28.97,NNE,27,2.0,8.0,44,0.00,,,0.00,Weather View 32 v70,2013-02-24 00:09:00,
2013-02-23 15:14:00,7.1,-10.2,28.97,NNE,24,3.0,8.0,44,0.00,,,0.00,Weather View 32 v70,2013-02-24 00:14:00,
2013-02-23 15:19:00,7.3,-10.0,28.96,NNE,21,5.0,8.0,44,0.00,,,0.00,Weather View 32 v70,2013-02-24 00:19:00,
2013-02-23 15:24:00,7.3,-10.0,28.96,NNE,21,5.0,8.0,44,0.00,,,0.00,Weather View 32 v70,2013-02-24 00:24:00,
2013-02-23 15:29:00,7.3,-10.0,28.96,NNE,19,2.0,8.0,44,0.00,,,0.00,Weather View 32 v70,2013-02-24 00:29:00,
2013-02-23 15:30:00,7.3,-10.0,28.97,NNE,19,0.0,8.0,44,0.00,,,0.00,Weather View 32 v70,2013-02-24 00:30:00,
2013-02-23 15:34:00,7.4,-9.5,28.97,NNE,27,1.0,8.0,45,0.00,,,0.00,Weather View 32 v70,2013-02-24 00:34:00,
2013-02-23 15:39:00,7.4,-9.5,28.96,NNE,17,2.0,8.0,45,0.00,,,0.00,Weather View 32 v70,2013-02-24 00:39:00,
2013-02-23 15:44:00,7.4,-9.9,28.96,North,0,1.0,8.0,44,0.00,,,0.00,Weather View 32 v70,2013-02-24 00:44:00,
2013-02-23 15:49:00,7.4,-9.9,28.96,NNE,30,2.0,8.0,44,0.00,,,0.00,Weather View 32 v70,2013-02-24 00:49:00,
2013-02-23 15:54:00,7.4,-9.9,28.96,NNE,24,1.0,8.0,44,0.00,,,0.00,Weather View 32 v70,2013-02-24 00:54:00,
2013-02-23 15:59:00,7.4,-9.5,28.96,NE,35,2.0,8.0,45,0.00,,,0.00,Weather View 32 v70,2013-02-24 00:59:00,
2013-02-23 16:04:00,7.4,-9.9,28.96,NNE,26,5.0,8.0,44,0.00,,,0.00,Weather View 32 v70,2013-02-24 01:04:00,
2013-02-23 16:09:00,7.3,-9.6,28.96,NNE,12,1.0,8.0,45,0.00,,,0.00,Weather View 32 v70,2013-02-24 01:09:00,
2013-02-23 16:14:00,7.2,-9.7,28.96,NNE,29,6.0,8.0,45,0.00,,,0.00,Weather View 32 v70,2013-02-24 01:14:00,
2013-02-23 16:19:00,7.2,-10.1,28.96,NNE,13,3.0,8.0,44,0.00,,,0.00,Weather View 32 v70,2013-02-24 01:19:00,
2013-02-23 16:24:00,7.1,-9.8,28.96,NNE,21,3.0,7.0,45,0.00,,,0.00,Weather View 32 v70,2013-02-24 01:24:00,
2013-02-23 16:29:00,7.1,-9.8,28.96,NNE,20,4.0,7.0,45,0.00,,,0.00,Weather View 32 v70,2013-02-24 01:29:00,
2013-02-23 16:30:00,7.1,-9.8,28.96,NNE,19,4.0,7.0,45,0.00,,,0.00,Weather View 32 v70,2013-02-24 01:30:00,
2013-02-23 16:34:00,7.1,-9.8,28.96,NNE,28,6.0,7.0,45,0.00,,,0.00,Weather View 32 v70,2013-02-24 01:34:00,
2013-02-23 16:39:00,7.1,-9.8,28.96,NE,36,4.0,7.0,45,0.00,,,0.00,Weather View 32 v70,2013-02-24 01:39:00,
2013-02-23 16:44:00,7.2,-9.7,28.96,NE,35,4.0,7.0,45,0.00,,,0.00,Weather View 32 v70,2013-02-24 01:44:00,
2013-02-23 16:49:00,7.2,-9.7,28.95,NE,35,2.0,7.0,45,0.00,,,0.00,Weather View 32 v70,2013-02-24 01:49:00,
2013-02-23 16:54:00,7.1,-9.8,28.96,NE,35,1.0,7.0,45,0.00,,,0.00,Weather View 32 v70,2013-02-24 01:54:00,
2013-02-23 16:59:00,7.0,-9.4,28.96,NE,35,1.0,7.0,46,0.00,,,0.00,Weather View 32 v70,2013-02-24 01:59:00,
2013-02-23 17:04:00,7.1,-9.3,28.96,NE,35,2.0,7.0,46,0.00,,,0.00,Weather View 32 v70,2013-02-24 02:04:00,
2013-02-23 17:09:00,7.0,-9.4,28.95,NE,35,2.0,7.0,46,0.00,,,0.00,Weather View 32 v70,2013-02-24 02:09:00,
2013-02-23 17:14:00,7.0,-9.4,28.96,NE,35,2.0,7.0,46,0.00,,,0.00,Weather View 32 v70,2013-02-24 02:14:00,
2013-02-23 17:19:00,7.0,-9.4,28.95,NE,34,4.0,7.0,46,0.00,,,0.00,Weather View 32 v70,2013-02-24 02:19:00,
2013-02-23 17:24:00,7.2,-9.2,28.95,NNE,30,4.0,7.0,46,0.00,,,0.00,Weather View 32 v70,2013-02-24 02:24:00,
2013-02-23 17:29:00,7.2,-8.8,28.95,NNE,30,2.0,7.0,47,0.00,,,0.00,Weather View 32 v70,2013-02-24 02:29:00,
2013-02-23 17:34:00,7.3,-8.7,28.95,NNE,30,1.0,7.0,47,0.00,,,0.00,Weather View 32 v70,2013-02-24 02:34:00,
2013-02-23 17:39:00,7.2,-9.2,28.94,NNE,30,2.0,6.0,46,0.00,,,0.00,Weather View 32 v70,2013-02-24 02:39:00,
2013-02-23 17:44:00,7.2,-8.8,28.95,NNE,30,2.0,6.0,47,0.00,,,0.00,Weather View 32 v70,2013-02-24 02:44:00,
2013-02-23 17:49:00,7.1,-8.9,28.95,NNE,28,3.0,6.0,47,0.00,,,0.00,Weather View 32 v70,2013-02-24 02:49:00,
2013-02-23 17:54:00,7.0,-9.0,28.95,NNE,27,3.0,6.0,47,0.00,,,0.00,Weather View 32 v70,2013-02-24 02:54:00,
2013-02-23 17:59:00,6.9,-9.1,28.95,NNE,27,1.0,6.0,47,0.00,,,0.00,Weather View 32 v70,2013-02-24 02:59:00,
2013-02-23 18:04:00,6.8,-9.2,28.95,NNE,27,0.0,6.0,47,0.00,,,0.00,Weather View 32 v70,2013-02-24 03:04:00,
2013-02-23 18:09:00,6.7,-9.2,28.94,NNE,27,0.0,6.0,47,0.00,,,0.00,Weather View 32 v70,2013-02-24 03:09:00,
2013-02-23 18:14:00,6.6,-9.3,28.94,NNE,27,0.0,6.0,47,0.00,,,0.00,Weather View 32 v70,2013-02-24 03:14:00,
2013-02-23 18:19:00,6.5,-9.4,28.94,NNE,27,0.0,6.0,47,0.00,,,0.00,Weather View 32 v70,2013-02-24 03:19:00,
2013-02-23 18:24:00,6.4,-9.5,28.94,NNE,27,1.0,5.0,47,0.00,,,0.00,Weather View 32 v70,2013-02-24 03:24:00,
2013-02-23 18:29:00,6.3,-9.6,28.95,NNE,27,2.0,5.0,47,0.00,,,0.00,Weather View 32 v70,2013-02-24 03:29:00,
2013-02-23 18:34:00,6.2,-9.7,28.95,NNE,27,0.0,5.0,47,0.00,,,0.00,Weather View 32 v70,2013-02-24 03:34:00,
2013-02-23 18:39:00,6.1,-9.8,28.95,NNE,27,0.0,5.0,47,0.00,,,0.00,Weather View 32 v70,2013-02-24 03:39:00,
2013-02-23 18:44:00,6.0,-9.5,28.95,NNE,27,0.0,5.0,48,0.00,,,0.00,Weather View 32 v70,2013-02-24 03:44:00,
2013-02-23 18:49:00,5.9,-10.0,28.95,NNE,27,0.0,4.0,47,0.00,,,0.00,Weather View 32 v70,2013-02-24 03:49:00,
2013-02-23 18:54:00,5.8,-9.7,28.95,NNE,27,0.0,3.0,48,0.00,,,0.00,Weather View 32 v70,2013-02-24 03:54:00,
2013-02-23 18:59:00,5.7,-9.7,28.94,NNE,27,0.0,4.0,48,0.00,,,0.00,Weather View 32 v70,2013-02-24 03:59:00,
2013-02-23 19:04:00,5.7,-9.7,28.95,NNE,26,0.0,4.0,48,0.00,,,0.00,Weather View 32 v70,2013-02-24 04:04:00,
2013-02-23 19:09:00,5.6,-9.8,28.94,NNE,26,0.0,4.0,48,0.00,,,0.00,Weather View 32 v70,2013-02-24 04:09:00,
2013-02-23 19:14:00,5.6,-9.8,28.95,NNE,26,0.0,4.0,48,0.00,,,0.00,Weather View 32 v70,2013-02-24 04:14:00,
2013-02-23 19:19:00,5.4,-10.0,28.94,NNE,26,0.0,4.0,48,0.00,,,0.00,Weather View 32 v70,2013-02-24 04:19:00,
2013-02-23 19:24:00,5.4,-9.6,28.95,NNE,26,0.0,4.0,49,0.00,,,0.00,Weather View 32 v70,2013-02-24 04:24:00,
2013-02-23 19:29:00,5.3,-9.7,28.94,NNE,26,0.0,4.0,49,0.00,,,0.00,Weather View 32 v70,2013-02-24 04:29:00,
2013-02-23 19:34:00,5.2,-9.8,28.94,NNE,26,0.0,4.0,49,0.00,,,0.00,Weather View 32 v70,2013-02-24 04:34:00,
2013-02-23 19:39:00,5.1,-9.9,28.94,NNE,26,0.0,4.0,49,0.00,,,0.00,Weather View 32 v70,2013-02-24 04:39:00,
2013-02-23 19:44:00,5.0,-10.0,28.94,NNE,26,0.0,4.0,49,0.00,,,0.00,Weather View 32 v70,2013-02-24 04:44:00,
2013-02-23 19:49:00,4.9,-10.1,28.94,NNE,26,0.0,4.0,49,0.00,,,0.00,Weather View 32 v70,2013-02-24 04:49:00,
2013-02-23 19:54:00,4.7,-10.3,28.94,NNE,26,0.0,4.0,49,0.00,,,0.00,Weather View 32 v70,2013-02-24 04:54:00,
2013-02-23 19:59:00,4.5,-10.0,28.94,NNE,26,0.0,3.0,50,0.00,,,0.00,Weather View 32 v70,2013-02-24 04:59:00,
2013-02-23 20:00:00,4.4,-10.1,28.94,NNE,26,0.0,3.0,50,0.00,,,0.00,Weather View 32 v70,2013-02-24 05:00:00,
2013-02-23 20:05:00,4.2,-10.3,28.94,NNE,26,0.0,1.0,50,0.00,,,0.00,Weather View 32 v70,2013-02-24 05:05:00,
2013-02-23 20:10:00,3.9,-10.6,28.94,NNE,26,0.0,1.0,50,0.00,,,0.00,Weather View 32 v70,2013-02-24 05:10:00,
2013-02-23 20:15:00,3.8,-10.3,28.94,NNE,26,0.0,1.0,51,0.00,,,0.00,Weather View 32 v70,2013-02-24 05:15:00,
2013-02-23 20:20:00,3.7,-10.4,28.94,NNE,26,0.0,1.0,51,0.00,,,0.00,Weather View 32 v70,2013-02-24 05:20:00,
2013-02-23 20:25:00,3.6,-10.5,28.94,NNE,26,0.0,1.0,51,0.00,,,0.00,Weather View 32 v70,2013-02-24 05:25:00,
2013-02-23 20:30:00,3.4,-10.7,28.94,NNE,26,0.0,1.0,51,0.00,,,0.00,Weather View 32 v70,2013-02-24 05:30:00,
2013-02-23 20:35:00,3.3,-10.8,28.94,NNE,26,0.0,0.0,51,0.00,,,0.00,Weather View 32 v70,2013-02-24 05:35:00,
2013-02-23 20:40:00,3.0,-11.0,28.94,NNE,26,0.0,0.0,51,0.00,,,0.00,Weather View 32 v70,2013-02-24 05:40:00,
2013-02-23 20:48:00,2.9,-11.1,28.94,NNE,26,0.0,0.0,51,0.00,,,0.00,Weather View 32 v70,2013-02-24 05:48:00,
2013-02-23 20:58:00,1.9,-11.3,28.94,NNE,26,0.0,0.0,53,0.00,,,0.00,Weather View 32 v70,2013-02-24 05:58:00,
2013-02-23 21:03:00,1.6,-11.6,28.95,NNE,26,0.0,0.0,53,0.00,,,0.00,Weather View 32 v70,2013-02-24 06:03:00,
2013-02-23 21:08:00,1.4,-11.8,28.94,NNE,26,0.0,0.0,53,0.00,,,0.00,Weather View 32 v70,2013-02-24 06:08:00,
2013-02-23 21:13:00,1.0,-11.8,28.95,NNE,26,0.0,0.0,54,0.00,,,0.00,Weather View 32 v70,2013-02-24 06:13:00,
2013-02-23 21:18:00,0.7,-12.0,28.95,NNE,26,0.0,0.0,54,0.00,,,0.00,Weather View 32 v70,2013-02-24 06:18:00,
2013-02-23 21:23:00,0.4,-12.3,28.95,NNE,26,0.0,0.0,54,0.00,,,0.00,Weather View 32 v70,2013-02-24 06:23:00,
2013-02-23 21:28:00,0.2,-12.1,28.95,NNE,26,0.0,0.0,55,0.00,,,0.00,Weather View 32 v70,2013-02-24 06:28:00,
2013-02-23 21:33:00,0.0,-12.3,28.95,NNE,26,0.0,0.0,55,0.00,,,0.00,Weather View 32 v70,2013-02-24 06:33:00,
2013-02-23 21:38:00,-0.4,-12.7,28.95,NNE,26,0.0,0.0,55,0.00,,,0.00,Weather View 32 v70,2013-02-24 06:38:00,
2013-02-23 21:43:00,-0.6,-12.9,28.95,NNE,26,0.0,0.0,55,0.00,,,0.00,Weather View 32 v70,2013-02-24 06:43:00,
2013-02-23 21:48:00,-0.9,-13.2,28.95,NNE,26,0.0,0.0,55,0.00,,,0.00,Weather View 32 v70,2013-02-24 06:48:00,
2013-02-23 21:53:00,-1.1,-13.4,28.95,NNE,26,0.0,0.0,55,0.00,,,0.00,Weather View 32 v70,2013-02-24 06:53:00,
2013-02-23 21:58:00,-1.4,-13.6,28.95,NNE,26,0.0,0.0,55,0.00,,,0.00,Weather View 32 v70,2013-02-24 06:58:00,
2013-02-23 22:03:00,-1.8,-14.0,28.95,NNE,26,0.0,0.0,55,0.00,,,0.00,Weather View 32 v70,2013-02-24 07:03:00,
2013-02-23 22:08:00,-1.7,-13.2,28.95,NNE,26,0.0,0.0,57,0.00,,,0.00,Weather View 32 v70,2013-02-24 07:08:00,
2013-02-23 22:13:00,-1.9,-13.7,28.95,NNE,26,0.0,0.0,56,0.00,,,0.00,Weather View 32 v70,2013-02-24 07:13:00,
2013-02-23 22:18:00,-2.2,-14.4,28.95,NNE,26,0.0,0.0,55,0.00,,,0.00,Weather View 32 v70,2013-02-24 07:18:00,
2013-02-23 22:23:00,-2.5,-14.7,28.95,NNE,26,0.0,0.0,55,0.00,,,0.00,Weather View 32 v70,2013-02-24 07:23:00,
2013-02-23 22:28:00,-2.8,-14.6,28.95,NNE,26,0.0,0.0,56,0.00,,,0.00,Weather View 32 v70,2013-02-24 07:28:00,
2013-02-23 22:33:00,-3.1,-14.9,28.95,NNE,26,0.0,0.0,56,0.00,,,0.00,Weather View 32 v70,2013-02-24 07:33:00,
2013-02-23 22:38:00,-3.4,-15.2,28.95,NNE,26,0.0,0.0,56,0.00,,,0.00,Weather View 32 v70,2013-02-24 07:38:00,
2013-02-23 22:43:00,-3.7,-15.4,28.95,NNE,26,0.0,0.0,56,0.00,,,0.00,Weather View 32 v70,2013-02-24 07:43:00,
2013-02-23 22:48:00,-3.9,-15.3,28.95,NNE,26,0.0,0.0,57,0.00,,,0.00,Weather View 32 v70,2013-02-24 07:48:00,
2013-02-23 22:53:00,-4.2,-15.6,28.95,NNE,26,0.0,0.0,57,0.00,,,0.00,Weather View 32 v70,2013-02-24 07:53:00,
2013-02-23 22:58:00,-4.3,-15.7,28.96,NNE,26,0.0,0.0,57,0.00,,,0.00,Weather View 32 v70,2013-02-24 07:58:00,
2013-02-23 23:28:00,-5.0,-15.6,28.96,NNE,26,0.0,0.0,59,0.00,,,0.00,Weather View 32 v70,2013-02-24 08:28:00,
2013-02-23 23:58:00,-6.8,-17.7,28.97,NNE,26,0.0,0.0,58,0.00,,,0.00,Weather View 32 v70,2013-02-24 08:58:00,